createdAt,value
2023-05-23T00:01:47.521Z,11.20
2023-05-23T00:04:19.036Z,10.70
2023-05-23T00:06:50.846Z,11.03
2023-05-23T00:09:19.593Z,11.33
2023-05-23T00:11:48.110Z,10.90
2023-05-23T00:14:18.566Z,10.97
2023-05-23T00:16:49.701Z,11.10
2023-05-23T00:19:18.600Z,11.00
2023-05-23T00:21:49.942Z,10.57
2023-05-23T00:24:19.034Z,10.30
2023-05-23T00:26:47.775Z,10.57
2023-05-23T00:29:18.376Z,10.20
2023-05-23T00:31:47.470Z,9.77
2023-05-23T00:34:17.899Z,9.17
2023-05-23T00:36:48.197Z,10.60
2023-05-23T00:39:20.086Z,9.77
2023-05-23T00:41:51.892Z,10.23
2023-05-23T00:44:22.566Z,10.47
2023-05-23T00:46:53.313Z,10.07
2023-05-23T00:49:22.386Z,9.20
2023-05-23T00:51:50.976Z,9.60
2023-05-23T00:54:21.135Z,10.63
2023-05-23T00:56:49.785Z,9.67
2023-05-23T00:59:18.598Z,8.70
2023-05-23T01:01:49.897Z,9.23
2023-05-23T01:04:20.120Z,9.63
2023-05-23T01:06:49.450Z,10.03
2023-05-23T01:09:18.962Z,9.83
2023-05-23T01:11:52.423Z,9.73
2023-05-23T01:14:23.817Z,9.60
2023-05-23T01:16:55.463Z,8.93
2023-05-23T01:19:36.355Z,9.03
2023-05-23T01:22:08.237Z,8.60
2023-05-23T01:24:39.793Z,8.47
2023-05-23T01:27:11.829Z,8.37
2023-05-23T01:29:44.491Z,9.30
2023-05-23T01:32:14.235Z,9.10
2023-05-23T01:34:43.836Z,10.00
2023-05-23T01:37:14.796Z,8.80
2023-05-23T01:39:44.133Z,10.10
2023-05-23T01:42:12.787Z,10.40
2023-05-23T01:44:43.363Z,9.97
2023-05-23T01:47:12.648Z,9.13
2023-05-23T01:49:42.180Z,9.60
2023-05-23T01:52:10.954Z,9.57
2023-05-23T01:54:43.453Z,9.30
2023-05-23T01:57:12.912Z,9.90
2023-05-23T01:59:42.847Z,9.97
2023-05-23T02:02:11.526Z,9.20
2023-05-23T02:04:40.243Z,9.70
2023-05-23T02:07:08.767Z,9.87
2023-05-23T02:09:37.292Z,10.50
2023-05-23T02:12:06.262Z,11.73
2023-05-23T02:14:35.135Z,12.03
2023-05-23T02:17:05.138Z,12.80
2023-05-23T02:19:33.895Z,12.90
2023-05-23T02:22:02.667Z,13.13
2023-05-23T02:24:31.183Z,12.97
2023-05-23T02:26:59.795Z,12.23
2023-05-23T02:29:28.531Z,13.23
2023-05-23T02:31:57.039Z,13.13
2023-05-23T02:34:27.048Z,12.73
2023-05-23T02:36:55.739Z,11.47
2023-05-23T02:39:24.258Z,13.70
2023-05-23T02:41:52.930Z,12.60
2023-05-23T02:44:21.740Z,12.80
2023-05-23T02:46:50.296Z,12.70
2023-05-23T02:49:18.911Z,13.23
2023-05-23T02:51:48.944Z,12.17
2023-05-23T02:54:17.656Z,11.93
2023-05-23T02:56:46.803Z,11.63
2023-05-23T02:59:15.760Z,12.17
2023-05-23T03:01:44.347Z,11.57
2023-05-23T03:04:13.902Z,10.50
2023-05-23T03:06:44.697Z,10.13
2023-05-23T03:09:14.706Z,10.77
2023-05-23T03:11:43.199Z,11.50
2023-05-23T03:14:11.818Z,11.63
2023-05-23T03:16:40.601Z,11.07
2023-05-23T03:19:09.217Z,11.37
2023-05-23T03:21:37.805Z,11.23
2023-05-23T03:24:06.594Z,12.70
2023-05-23T03:26:36.609Z,10.90
2023-05-23T03:29:05.250Z,11.07
2023-05-23T03:31:33.923Z,11.97
2023-05-23T03:34:02.466Z,10.53
2023-05-23T03:36:33.323Z,12.17
2023-05-23T03:39:01.966Z,14.20
2023-05-23T03:41:30.450Z,11.20
2023-05-23T03:44:00.900Z,11.57
2023-05-23T03:46:29.725Z,13.80
2023-05-23T03:48:58.301Z,14.60
2023-05-23T03:51:28.172Z,17.20
2023-05-23T03:53:57.007Z,15.67
2023-05-23T03:56:26.134Z,16.07
2023-05-23T03:58:54.717Z,12.87
2023-05-23T04:01:25.225Z,14.33
2023-05-23T04:03:53.921Z,11.27
2023-05-23T04:06:23.243Z,11.33
2023-05-23T04:08:51.948Z,10.17
2023-05-23T04:11:22.172Z,12.23
2023-05-23T04:13:52.089Z,11.83
2023-05-23T04:16:22.783Z,10.53
2023-05-23T04:18:52.982Z,11.53
2023-05-23T04:21:21.549Z,12.87
2023-05-23T04:23:50.064Z,14.63
2023-05-23T04:26:18.862Z,12.37
2023-05-23T04:28:48.801Z,12.37
2023-05-23T04:31:17.518Z,12.90
2023-05-23T04:33:46.388Z,10.27
2023-05-23T04:36:16.342Z,10.50
2023-05-23T04:38:44.844Z,10.73
2023-05-23T04:41:13.562Z,10.03
2023-05-23T04:43:42.803Z,10.23
2023-05-23T04:46:11.449Z,10.73
2023-05-23T04:48:40.138Z,9.73
2023-05-23T04:51:08.876Z,8.97
2023-05-23T04:53:41.273Z,9.33
2023-05-23T04:56:10.501Z,11.07
2023-05-23T04:58:40.658Z,11.43
2023-05-23T05:01:10.000Z,12.53
2023-05-23T05:03:38.687Z,12.40
2023-05-23T05:06:07.805Z,11.53
2023-05-23T05:08:36.477Z,12.00
2023-05-23T05:11:06.517Z,11.83
2023-05-23T05:13:35.013Z,12.37
2023-05-23T05:16:04.040Z,11.17
2023-05-23T05:18:32.933Z,10.53
2023-05-23T05:21:01.601Z,11.33
2023-05-23T05:23:30.375Z,11.07
2023-05-23T05:25:59.134Z,11.80
2023-05-23T05:28:29.016Z,10.70
2023-05-23T05:30:57.705Z,10.53
2023-05-23T05:33:28.527Z,8.60
2023-05-23T05:35:57.259Z,8.97
2023-05-23T05:38:25.880Z,7.87
2023-05-23T05:40:54.591Z,7.80
2023-05-23T05:43:23.094Z,7.13
2023-05-23T05:45:53.150Z,7.10
2023-05-23T05:48:21.936Z,7.00
2023-05-23T05:50:50.437Z,7.43
2023-05-23T05:53:19.071Z,6.97
2023-05-23T05:55:47.701Z,6.27
2023-05-23T05:58:16.331Z,6.37
2023-05-23T06:00:45.439Z,6.13
2023-05-23T06:03:15.875Z,6.80
2023-05-23T06:05:44.456Z,6.50
2023-05-23T06:08:13.153Z,6.50
2023-05-23T06:10:42.161Z,6.73
2023-05-23T06:13:11.084Z,7.40
2023-05-23T06:15:39.695Z,7.40
2023-05-23T06:18:08.465Z,7.03
2023-05-23T06:20:38.448Z,7.73
2023-05-23T06:23:07.109Z,6.70
2023-05-23T06:25:35.772Z,7.30
2023-05-23T06:28:04.254Z,6.93
2023-05-23T06:30:33.796Z,6.30
2023-05-23T06:33:02.766Z,6.50
2023-05-23T06:35:31.505Z,6.17
2023-05-23T06:38:01.569Z,6.43
2023-05-23T06:40:30.069Z,6.00
2023-05-23T06:42:58.596Z,6.40
2023-05-23T06:45:27.485Z,6.27
2023-05-23T06:47:56.040Z,6.40
2023-05-23T06:50:24.719Z,6.30
2023-05-23T06:52:53.564Z,6.67
2023-05-23T06:55:23.691Z,5.77
2023-05-23T06:57:52.577Z,6.00
2023-05-23T07:00:21.507Z,6.60
2023-05-23T07:02:50.235Z,5.80
2023-05-23T07:05:19.056Z,5.90
2023-05-23T07:07:47.756Z,5.93
2023-05-23T07:10:16.402Z,6.03
2023-05-23T07:12:46.319Z,6.30
2023-05-23T07:15:15.226Z,6.07
2023-05-23T07:17:43.915Z,6.53
2023-05-23T07:20:12.973Z,6.37
2023-05-23T07:22:41.620Z,6.40
2023-05-23T07:25:10.571Z,6.53
2023-05-23T07:27:39.080Z,6.67
2023-05-23T07:30:10.706Z,6.23
2023-05-23T07:32:39.452Z,6.33
2023-05-23T07:35:08.345Z,6.40
2023-05-23T07:37:37.114Z,6.63
2023-05-23T07:40:06.783Z,6.47
2023-05-23T07:42:35.280Z,5.90
2023-05-23T07:45:03.899Z,6.30
2023-05-23T07:47:33.920Z,6.03
2023-05-23T07:50:03.369Z,6.40
2023-05-23T07:52:32.448Z,6.60
2023-05-23T07:55:01.597Z,5.83
2023-05-23T07:57:30.510Z,5.40
2023-05-23T07:59:59.235Z,5.43
2023-05-23T08:02:27.980Z,5.87
2023-05-23T08:04:58.136Z,5.87
2023-05-23T08:07:27.219Z,5.57
2023-05-23T08:09:55.866Z,5.30
2023-05-23T08:12:24.375Z,5.33
2023-05-23T08:14:52.997Z,5.30
2023-05-23T08:17:21.735Z,5.73
2023-05-23T08:19:50.338Z,5.47
2023-05-23T08:22:20.426Z,5.20
2023-05-23T08:24:49.098Z,5.27
2023-05-23T08:27:17.586Z,5.40
2023-05-23T08:29:46.617Z,4.80
2023-05-23T08:32:15.467Z,5.13
2023-05-23T08:34:44.110Z,4.93
2023-05-23T08:37:12.876Z,4.60
2023-05-23T08:39:42.937Z,4.80
2023-05-23T08:42:11.491Z,4.80
2023-05-23T08:44:40.836Z,4.97
2023-05-23T08:47:11.226Z,5.00
2023-05-23T08:49:41.046Z,4.33
2023-05-23T08:52:11.355Z,5.13
2023-05-23T08:54:41.168Z,4.37
2023-05-23T08:57:11.368Z,3.90
2023-05-23T08:59:40.572Z,3.63
2023-05-23T09:02:10.588Z,3.50
2023-05-23T09:04:39.111Z,4.13
2023-05-23T09:07:08.648Z,4.33
2023-05-23T09:09:37.408Z,4.50
2023-05-23T09:12:06.247Z,4.17
2023-05-23T09:14:37.590Z,4.20
2023-05-23T09:17:06.255Z,4.37
2023-05-23T09:19:35.049Z,4.60
2023-05-23T09:22:05.009Z,4.40
2023-05-23T09:24:37.166Z,4.50
2023-05-23T09:27:07.999Z,3.97
2023-05-23T09:29:40.799Z,4.20
2023-05-23T09:32:15.587Z,4.80
2023-05-23T09:34:44.286Z,5.10
2023-05-23T09:37:18.423Z,5.07
2023-05-23T09:39:48.748Z,5.10
2023-05-23T09:42:22.324Z,5.33
2023-05-23T09:44:52.485Z,4.93
2023-05-23T09:47:21.218Z,5.53
2023-05-23T09:49:51.615Z,5.27
2023-05-23T09:52:21.364Z,5.17
2023-05-23T09:54:49.987Z,5.63
2023-05-23T09:57:18.859Z,5.13
2023-05-23T09:59:49.101Z,4.90
2023-05-23T10:02:19.879Z,5.03
2023-05-23T10:04:50.165Z,5.23
2023-05-23T10:07:20.539Z,5.23
2023-05-23T10:09:50.327Z,5.30
2023-05-23T10:12:31.977Z,4.80
2023-05-23T10:15:04.171Z,5.00
2023-05-23T10:17:37.371Z,5.20
2023-05-23T10:20:09.532Z,5.63
2023-05-23T10:22:38.473Z,5.63
2023-05-23T10:25:08.788Z,5.83
2023-05-23T10:27:37.615Z,4.13
2023-05-23T10:30:06.785Z,3.00
2023-05-23T10:32:37.125Z,2.30
2023-05-23T10:35:10.086Z,2.30
2023-05-23T10:37:41.839Z,2.80
2023-05-23T10:40:22.422Z,2.37
2023-05-23T10:42:54.637Z,2.50
2023-05-23T10:45:24.419Z,2.60
2023-05-23T10:47:54.933Z,3.07
2023-05-23T10:50:42.282Z,2.90
2023-05-23T10:53:11.767Z,2.80
2023-05-23T10:55:40.255Z,2.60
2023-05-23T10:58:12.532Z,3.73
2023-05-23T11:00:41.410Z,2.77
2023-05-23T11:03:11.624Z,2.90
2023-05-23T11:05:49.598Z,2.90
2023-05-23T11:08:18.227Z,2.60
2023-05-23T11:10:56.673Z,2.20
2023-05-23T11:13:25.595Z,2.60
2023-05-23T11:15:54.271Z,2.23
2023-05-23T11:18:25.455Z,2.27
2023-05-23T11:20:54.797Z,2.20
2023-05-23T11:23:23.785Z,2.00
2023-05-23T11:25:53.907Z,2.27
2023-05-23T11:28:24.210Z,2.23
2023-05-23T11:30:54.013Z,1.93
2023-05-23T11:33:23.943Z,2.23
2023-05-23T11:35:53.113Z,2.20
2023-05-23T11:38:21.640Z,2.30
2023-05-23T11:40:50.188Z,2.10
2023-05-23T11:43:19.935Z,2.20
2023-05-23T11:45:48.793Z,2.20
2023-05-23T11:48:18.034Z,1.90
2023-05-23T11:50:49.940Z,2.03
2023-05-23T11:53:21.051Z,1.83
2023-05-23T11:55:54.579Z,2.00
2023-05-23T11:58:23.841Z,1.90
2023-05-23T12:00:55.046Z,1.90
2023-05-23T12:03:24.280Z,1.90
2023-05-23T12:05:54.389Z,2.00
2023-05-23T12:08:23.163Z,2.00
2023-05-23T12:10:53.330Z,2.20
2023-05-23T12:13:22.728Z,2.13
2023-05-23T12:15:52.172Z,2.03
2023-05-23T12:18:21.921Z,2.00
2023-05-23T12:20:51.549Z,1.97
2023-05-23T12:23:22.041Z,1.97
2023-05-23T12:25:53.982Z,1.67
2023-05-23T12:28:23.127Z,1.70
2023-05-23T12:30:51.662Z,1.70
2023-05-23T12:33:21.390Z,1.53
2023-05-23T12:35:50.087Z,1.60
2023-05-23T12:38:18.655Z,1.33
2023-05-23T12:40:48.670Z,1.70
2023-05-23T12:43:18.019Z,1.67
2023-05-23T12:45:46.583Z,1.85
2023-05-23T12:48:15.238Z,1.80
2023-05-23T12:50:43.995Z,1.80
2023-05-23T12:53:12.506Z,1.67
2023-05-23T12:55:41.621Z,1.88
2023-05-23T12:58:12.007Z,1.80
2023-05-23T13:00:41.056Z,2.00
2023-05-23T13:03:10.048Z,2.00
2023-05-23T13:05:38.976Z,2.00
2023-05-23T13:08:07.830Z,1.90
2023-05-23T13:10:36.454Z,1.83
2023-05-23T13:13:05.076Z,1.63
2023-05-23T13:15:34.995Z,1.70
2023-05-23T13:18:03.912Z,1.70
2023-05-23T13:20:32.600Z,1.85
2023-05-23T13:23:01.726Z,2.00
2023-05-23T13:25:30.435Z,2.13
2023-05-23T13:27:59.043Z,2.00
2023-05-23T13:30:27.542Z,2.10
2023-05-23T13:32:57.592Z,2.10
2023-05-23T13:35:26.362Z,2.03
2023-05-23T13:37:54.885Z,2.23
2023-05-23T13:40:23.840Z,2.20
2023-05-23T13:42:53.068Z,2.27
2023-05-23T13:45:23.380Z,2.33
2023-05-23T13:47:52.062Z,2.13
2023-05-23T13:50:22.208Z,2.43
2023-05-23T13:52:51.102Z,2.40
2023-05-23T13:55:19.804Z,2.20
2023-05-23T13:57:48.466Z,2.50
2023-05-23T14:00:17.482Z,2.53
2023-05-23T14:02:46.186Z,2.47
2023-05-23T14:05:15.760Z,2.43
2023-05-23T14:07:47.357Z,2.30
2023-05-23T14:10:17.546Z,2.43
2023-05-23T14:12:46.228Z,3.00
2023-05-23T14:15:14.934Z,2.90
2023-05-23T14:17:43.880Z,2.77
2023-05-23T14:20:12.968Z,3.00
2023-05-23T14:22:41.479Z,3.17
2023-05-23T14:25:11.981Z,2.90
2023-05-23T14:27:41.360Z,2.80
2023-05-23T14:30:10.431Z,2.90
2023-05-23T14:32:39.781Z,2.90
2023-05-23T14:35:09.113Z,2.67
2023-05-23T14:37:37.812Z,2.70
2023-05-23T14:40:07.072Z,2.97
2023-05-23T14:42:37.013Z,2.50
2023-05-23T14:45:06.380Z,2.50
2023-05-23T14:47:35.641Z,2.58
2023-05-23T14:50:04.228Z,2.58
2023-05-23T14:52:32.851Z,2.55
2023-05-23T14:55:02.051Z,2.58
2023-05-23T14:57:30.784Z,3.17
2023-05-23T15:00:01.637Z,5.95
2023-05-23T15:02:30.336Z,3.47
2023-05-23T15:04:58.974Z,2.70
2023-05-23T15:07:27.678Z,2.77
2023-05-23T15:09:56.300Z,3.10
2023-05-23T15:12:24.802Z,2.50
2023-05-23T15:14:53.417Z,2.57
2023-05-23T15:17:25.886Z,2.10
2023-05-23T15:19:57.149Z,2.37
2023-05-23T15:24:57.484Z,1.87
2023-05-23T15:27:26.007Z,2.20
2023-05-23T15:29:54.676Z,2.57
2023-05-23T15:32:24.824Z,2.40
2023-05-23T15:34:53.474Z,2.10
2023-05-23T15:37:22.051Z,2.57
2023-05-23T15:39:50.750Z,2.60
2023-05-23T15:42:19.239Z,2.40
2023-05-23T15:44:47.921Z,2.33
2023-05-23T15:47:16.676Z,2.47
2023-05-23T15:49:46.593Z,2.43
2023-05-23T15:52:15.304Z,2.67
2023-05-23T15:54:43.952Z,2.20
2023-05-23T15:57:12.454Z,2.40
2023-05-23T15:59:41.467Z,2.23
2023-05-23T16:02:10.779Z,2.60
2023-05-23T16:04:39.415Z,2.40
2023-05-23T16:07:09.444Z,2.70
2023-05-23T16:09:38.116Z,2.17
2023-05-23T16:12:06.945Z,2.30
2023-05-23T16:14:35.716Z,2.47
2023-05-23T16:17:06.094Z,2.23
2023-05-23T16:19:34.935Z,2.20
2023-05-23T16:22:03.899Z,2.20
2023-05-23T16:24:33.881Z,2.30
2023-05-23T16:27:03.167Z,2.20
2023-05-23T16:29:31.793Z,2.17
2023-05-23T16:32:00.522Z,2.37
2023-05-23T16:34:29.151Z,1.97
2023-05-23T16:36:57.769Z,1.80
2023-05-23T16:39:26.342Z,2.10
2023-05-23T16:41:57.500Z,2.00
2023-05-23T16:44:28.384Z,2.00
2023-05-23T16:46:56.934Z,2.00
2023-05-23T16:49:25.577Z,2.20
2023-05-23T16:51:54.260Z,2.20
2023-05-23T16:54:22.768Z,1.87
2023-05-23T16:56:51.461Z,2.07
2023-05-23T16:59:21.502Z,1.97
2023-05-23T17:01:50.100Z,2.27
2023-05-23T17:04:20.502Z,2.37
2023-05-23T17:06:49.284Z,2.30
2023-05-23T17:09:18.452Z,2.07
2023-05-23T17:11:47.027Z,2.03
2023-05-23T17:14:15.713Z,1.97
2023-05-23T17:16:45.610Z,2.20
2023-05-23T17:19:14.324Z,2.17
2023-05-23T17:21:42.990Z,2.13
2023-05-23T17:24:11.498Z,2.00
2023-05-23T17:26:40.191Z,2.80
2023-05-23T17:29:08.811Z,2.10
2023-05-23T17:31:37.397Z,2.00
2023-05-23T17:34:07.574Z,2.13
2023-05-23T17:36:36.295Z,2.27
2023-05-23T17:39:04.864Z,2.17
2023-05-23T17:41:33.361Z,2.10
2023-05-23T17:44:01.986Z,1.97
2023-05-23T17:46:30.657Z,1.97
2023-05-23T17:48:59.258Z,1.80
2023-05-23T17:51:29.289Z,2.17
2023-05-23T17:53:57.836Z,1.70
2023-05-23T17:56:26.389Z,1.83
2023-05-23T17:58:55.253Z,1.83
2023-05-23T18:01:24.768Z,2.03
2023-05-23T18:03:54.580Z,1.90
2023-05-23T18:06:23.376Z,1.70
2023-05-23T18:08:53.265Z,1.60
2023-05-23T18:11:22.186Z,1.77
2023-05-23T18:13:50.944Z,1.70
2023-05-23T18:16:19.510Z,1.67
2023-05-23T18:18:48.050Z,1.73
2023-05-23T18:21:18.145Z,1.77
2023-05-23T18:23:47.196Z,1.63
2023-05-23T18:26:17.093Z,1.50
2023-05-23T18:28:45.857Z,1.83
2023-05-23T18:31:14.371Z,1.70
2023-05-23T18:33:42.922Z,1.90
2023-05-23T18:36:11.586Z,1.57
2023-05-23T18:38:40.988Z,1.90
2023-05-23T18:41:13.196Z,1.70
2023-05-23T18:43:44.808Z,1.90
2023-05-23T18:46:13.313Z,1.90
2023-05-23T18:48:41.915Z,1.60
2023-05-23T18:51:12.482Z,1.80
2023-05-23T18:53:42.424Z,1.73
2023-05-23T18:56:11.237Z,1.83
2023-05-23T18:58:39.922Z,1.80
2023-05-23T19:01:09.816Z,2.03
2023-05-23T19:03:38.440Z,1.90
2023-05-23T19:06:08.727Z,1.80
2023-05-23T19:08:37.252Z,1.70
2023-05-23T19:11:06.076Z,1.73
2023-05-23T19:13:34.704Z,2.00
2023-05-23T19:16:03.301Z,2.10
2023-05-23T19:18:33.257Z,1.70
2023-05-23T19:21:02.602Z,1.80
2023-05-23T19:23:31.108Z,2.00
2023-05-23T19:25:59.611Z,1.90
2023-05-23T19:28:28.242Z,1.70
2023-05-23T19:30:56.726Z,1.83
2023-05-23T19:33:25.214Z,1.70
2023-05-23T19:35:55.364Z,2.00
2023-05-23T19:38:23.883Z,1.87
2023-05-23T19:40:52.608Z,2.00
2023-05-23T19:43:21.373Z,1.83
2023-05-23T19:45:49.902Z,1.73
2023-05-23T19:48:18.836Z,2.20
2023-05-23T19:50:47.905Z,2.00
2023-05-23T19:53:19.019Z,1.87
2023-05-23T19:55:47.650Z,2.37
2023-05-23T19:58:16.622Z,1.83
2023-05-23T20:00:45.109Z,2.17
2023-05-23T20:03:13.739Z,2.13
2023-05-23T20:05:42.595Z,2.00
2023-05-23T20:08:11.261Z,2.00
2023-05-23T20:10:43.283Z,2.00
2023-05-23T20:13:12.506Z,2.30
2023-05-23T20:15:41.094Z,2.10
2023-05-23T20:18:09.748Z,2.13
2023-05-23T20:20:38.440Z,2.20
2023-05-23T20:23:09.141Z,2.17
2023-05-23T20:25:37.674Z,2.27
2023-05-23T20:28:07.793Z,2.10
2023-05-23T20:30:36.441Z,2.10
2023-05-23T20:33:05.055Z,2.40
2023-05-23T20:35:33.689Z,2.33
2023-05-23T20:38:02.383Z,2.30
2023-05-23T20:40:33.696Z,2.30
2023-05-23T20:43:04.927Z,2.40
2023-05-23T20:45:35.220Z,2.20
2023-05-23T20:48:03.795Z,2.40
2023-05-23T20:50:33.905Z,2.47
2023-05-23T20:53:02.755Z,2.43
2023-05-23T20:55:35.039Z,2.17
2023-05-23T20:58:03.639Z,2.60
2023-05-23T21:00:32.160Z,3.10
2023-05-23T21:03:02.441Z,2.60
2023-05-23T21:05:31.219Z,2.57
2023-05-23T21:07:59.775Z,2.50
2023-05-23T21:10:28.279Z,2.60
2023-05-23T21:12:57.260Z,2.43
2023-05-23T21:15:26.148Z,2.33
2023-05-23T21:17:54.813Z,2.37
2023-05-23T21:20:25.043Z,2.50
2023-05-23T21:22:53.580Z,2.73
2023-05-23T21:25:22.141Z,2.17
2023-05-23T21:27:50.783Z,2.60
2023-05-23T21:30:19.273Z,2.40
2023-05-23T21:32:47.878Z,2.60
2023-05-23T21:35:16.678Z,2.40
2023-05-23T21:37:46.569Z,2.70
2023-05-23T21:40:15.076Z,2.60
2023-05-23T21:42:43.896Z,2.83
2023-05-23T21:45:12.698Z,2.70
2023-05-23T21:47:41.233Z,2.70
2023-05-23T21:50:10.439Z,2.77
2023-05-23T21:52:38.964Z,2.40
2023-05-23T21:55:09.204Z,2.70
2023-05-23T21:57:38.015Z,2.70
2023-05-23T22:00:12.208Z,2.77
2023-05-23T22:02:41.438Z,3.07
2023-05-23T22:05:10.227Z,2.87
2023-05-23T22:07:38.904Z,2.50
2023-05-23T22:10:09.757Z,2.83
2023-05-23T22:12:38.852Z,3.40
2023-05-23T22:15:08.321Z,3.07
2023-05-23T22:17:37.098Z,2.73
2023-05-23T22:20:06.524Z,3.73
2023-05-23T22:22:35.033Z,3.97
2023-05-23T22:25:03.695Z,4.47
2023-05-23T22:27:34.178Z,5.17
2023-05-23T22:30:02.697Z,3.97
2023-05-23T22:32:31.434Z,4.80
2023-05-23T22:34:59.965Z,3.87
2023-05-23T22:37:28.548Z,3.83
2023-05-23T22:39:57.137Z,3.60
2023-05-23T22:42:25.655Z,3.17
2023-05-23T22:44:55.932Z,2.83
2023-05-23T22:47:24.771Z,2.80
2023-05-23T22:49:56.663Z,2.80
2023-05-23T22:52:25.613Z,2.60
2023-05-23T22:54:54.302Z,3.03
2023-05-23T22:57:22.823Z,3.83
2023-05-23T22:59:51.506Z,4.43
2023-05-23T23:02:21.658Z,5.00
2023-05-23T23:04:50.284Z,4.33
2023-05-23T23:07:18.867Z,4.47
2023-05-23T23:09:47.461Z,5.70
2023-05-23T23:12:16.434Z,4.20
2023-05-23T23:14:44.995Z,4.60
2023-05-23T23:17:14.395Z,4.50
2023-05-23T23:19:44.340Z,4.50
2023-05-23T23:22:13.022Z,4.27
2023-05-23T23:24:42.284Z,4.27
2023-05-23T23:27:10.795Z,4.47
2023-05-23T23:29:39.409Z,4.73
2023-05-23T23:32:08.131Z,4.93
2023-05-23T23:34:36.640Z,4.80
2023-05-23T23:37:06.913Z,5.30
2023-05-23T23:39:35.529Z,5.10
2023-05-23T23:42:04.065Z,5.43
2023-05-23T23:44:32.920Z,5.47
2023-05-23T23:47:01.533Z,5.50
2023-05-23T23:49:30.035Z,5.50
2023-05-23T23:51:59.001Z,4.97
2023-05-23T23:54:29.284Z,4.30
2023-05-23T23:56:57.795Z,4.57
2023-05-23T23:59:26.881Z,4.37
